createdAt,value
2022-12-12T00:02:15.866Z,99411.81
2022-12-12T00:07:18.663Z,99421.00
2022-12-12T00:12:22.816Z,99418.06
2022-12-12T00:17:25.558Z,99417.06
2022-12-12T00:22:28.480Z,99411.06
2022-12-12T00:27:34.116Z,99413.19
2022-12-12T00:32:36.878Z,99421.91
2022-12-12T00:37:39.672Z,99415.31
2022-12-12T00:42:43.855Z,99414.00
2022-12-12T00:47:46.581Z,99417.72
2022-12-12T00:52:49.541Z,99413.09
2022-12-12T00:57:53.675Z,99430.75
2022-12-12T01:02:57.421Z,99435.75
2022-12-12T01:08:00.261Z,99440.88
2022-12-12T01:13:05.269Z,99442.63
2022-12-12T01:18:08.142Z,99445.94
2022-12-12T01:23:11.365Z,99445.56
2022-12-12T01:28:15.636Z,99448.75
2022-12-12T01:33:18.382Z,99450.22
2022-12-12T01:38:21.158Z,99452.56
2022-12-12T01:43:25.801Z,99455.63
2022-12-12T01:48:33.489Z,99451.69
2022-12-12T01:53:37.269Z,99452.06
2022-12-12T01:58:44.164Z,99459.63
2022-12-12T02:03:49.940Z,99460.00
2022-12-12T02:08:56.022Z,99455.81
2022-12-12T02:14:00.662Z,99454.44
2022-12-12T02:19:24.706Z,99452.34
2022-12-12T02:24:53.321Z,99446.69
2022-12-12T02:30:17.533Z,99455.13
2022-12-12T02:35:33.601Z,99454.50
2022-12-12T02:40:46.085Z,99462.91
2022-12-12T02:45:53.070Z,99462.28
2022-12-12T02:51:01.820Z,99455.69
2022-12-12T02:56:06.640Z,99459.47
2022-12-12T03:01:24.608Z,99453.72
2022-12-12T03:07:05.301Z,99455.03
2022-12-12T03:12:13.177Z,99454.28
2022-12-12T03:17:28.356Z,99464.50
2022-12-12T03:22:41.291Z,99454.88
2022-12-12T03:27:52.200Z,99461.44
2022-12-12T03:33:00.188Z,99464.25
2022-12-12T03:38:10.213Z,99461.88
2022-12-12T03:43:18.050Z,99453.56
2022-12-12T03:48:28.240Z,99455.28
2022-12-12T03:53:37.458Z,99447.66
2022-12-12T03:58:45.856Z,99450.34
2022-12-12T04:03:55.343Z,99447.75
2022-12-12T04:09:20.240Z,99445.31
2022-12-12T04:14:41.716Z,99456.38
2022-12-12T04:20:12.583Z,99472.59
2022-12-12T04:25:26.177Z,99476.25
2022-12-12T04:30:32.393Z,99470.00
2022-12-12T04:35:39.441Z,99472.06
2022-12-12T04:40:46.780Z,99471.56
2022-12-12T04:45:55.205Z,99477.78
2022-12-12T04:51:01.986Z,99477.88
2022-12-12T04:56:10.651Z,99477.13
2022-12-12T05:01:21.319Z,99477.25
2022-12-12T05:06:32.939Z,99481.88
2022-12-12T05:11:37.495Z,99481.97
2022-12-12T05:16:45.843Z,99481.97
2022-12-12T05:21:49.145Z,99479.63
2022-12-12T05:26:53.252Z,99484.16
2022-12-12T05:31:56.163Z,99486.84
2022-12-12T05:36:58.910Z,99490.47
2022-12-12T05:42:03.084Z,99493.25
2022-12-12T05:47:06.857Z,99493.38
2022-12-12T05:52:09.610Z,99500.56
2022-12-12T05:57:13.798Z,99501.53
2022-12-12T06:02:17.347Z,99502.50
2022-12-12T06:07:20.133Z,99520.41
2022-12-12T06:12:24.404Z,99515.03
2022-12-12T06:17:32.864Z,99517.09
2022-12-12T06:22:37.053Z,99510.97
2022-12-12T06:27:41.158Z,99514.50
2022-12-12T06:32:43.972Z,99516.56
2022-12-12T06:37:48.336Z,99521.94
2022-12-12T06:42:52.431Z,99515.72
2022-12-12T06:47:55.180Z,99521.28
2022-12-12T06:52:57.887Z,99527.63
2022-12-12T06:58:02.028Z,99535.78
2022-12-12T07:03:05.497Z,99532.34
2022-12-12T07:08:08.344Z,99539.53
2022-12-12T07:13:12.569Z,99535.25
2022-12-12T07:18:16.161Z,99541.66
2022-12-12T07:23:18.977Z,99542.75
2022-12-12T07:28:23.331Z,99549.09
2022-12-12T07:33:33.165Z,99555.38
2022-12-12T07:38:42.883Z,99562.69
2022-12-12T07:43:47.778Z,99564.53
2022-12-12T07:48:50.806Z,99571.72
2022-12-12T07:53:53.788Z,99578.03
2022-12-12T07:58:57.979Z,99589.47
2022-12-12T08:04:00.976Z,99609.44
2022-12-12T08:09:04.251Z,99620.69
2022-12-12T08:14:12.854Z,99609.44
2022-12-12T08:19:16.697Z,99608.22
2022-12-12T08:24:19.716Z,99609.78
2022-12-12T08:29:23.927Z,99604.28
2022-12-12T08:34:27.346Z,99604.72
2022-12-12T08:39:30.099Z,99605.44
2022-12-12T08:44:34.290Z,99602.88
2022-12-12T08:49:37.218Z,99620.13
2022-12-12T08:54:40.091Z,99620.63
2022-12-12T08:59:44.243Z,99624.88
2022-12-12T09:04:47.250Z,99628.25
2022-12-12T09:09:50.001Z,99631.69
2022-12-12T09:14:54.182Z,99635.38
2022-12-12T09:19:57.063Z,99635.63
2022-12-12T09:25:00.256Z,99645.63
2022-12-12T09:30:05.301Z,99645.00
2022-12-12T09:35:08.915Z,99646.03
2022-12-12T09:40:18.933Z,99644.66
2022-12-12T09:45:23.454Z,99646.81
2022-12-12T09:50:31.966Z,99647.22
2022-12-12T09:55:43.222Z,99660.13
2022-12-12T10:00:54.510Z,99665.03
2022-12-12T10:06:36.065Z,99663.44
2022-12-12T10:11:52.974Z,99660.34
2022-12-12T10:16:59.514Z,99667.81
2022-12-12T10:22:07.382Z,99658.69
2022-12-12T10:27:12.046Z,99663.59
2022-12-12T10:32:28.590Z,99663.19
2022-12-12T10:37:42.673Z,99667.59
2022-12-12T10:42:51.106Z,99665.63
2022-12-12T10:47:55.436Z,99669.81
2022-12-12T10:52:58.742Z,99666.91
2022-12-12T10:58:03.690Z,99661.06
2022-12-12T11:03:24.816Z,99662.56
2022-12-12T11:08:30.864Z,99664.91
2022-12-12T11:13:44.819Z,99666.31
2022-12-12T11:19:06.126Z,99664.25
2022-12-12T11:24:14.489Z,99663.88
2022-12-12T11:29:44.843Z,99666.25
2022-12-12T11:34:52.625Z,99667.63
2022-12-12T11:39:57.945Z,99671.69
2022-12-12T11:45:03.505Z,99674.06
2022-12-12T11:50:20.000Z,99682.75
2022-12-12T11:55:30.871Z,99676.16
2022-12-12T12:00:44.380Z,99671.53
2022-12-12T12:05:58.468Z,99670.34
2022-12-12T12:11:11.218Z,99668.25
2022-12-12T12:16:23.796Z,99669.03
2022-12-12T12:21:40.326Z,99669.75
2022-12-12T12:26:53.937Z,99676.84
2022-12-12T12:32:10.272Z,99678.56
2022-12-12T12:37:29.659Z,99675.00
2022-12-12T12:42:51.603Z,99673.28
2022-12-12T12:48:04.631Z,99686.75
2022-12-12T12:53:26.689Z,99683.31
2022-12-12T12:58:35.869Z,99688.69
2022-12-12T13:03:45.546Z,99677.94
2022-12-12T13:08:59.125Z,99680.50
2022-12-12T13:14:14.264Z,99688.56
2022-12-12T13:19:29.158Z,99687.59
2022-12-12T13:24:40.082Z,99689.31
2022-12-12T13:29:50.367Z,99698.13
2022-12-12T13:34:56.549Z,99695.44
2022-12-12T13:40:04.625Z,99696.41
2022-12-12T13:45:37.360Z,99707.16
2022-12-12T13:50:40.227Z,99705.34
2022-12-12T13:55:44.655Z,99712.44
2022-12-12T14:00:47.981Z,99716.09
2022-12-12T14:05:52.426Z,99720.72
2022-12-12T14:11:00.794Z,99720.00
2022-12-12T14:16:07.812Z,99730.88
2022-12-12T14:21:13.469Z,99745.91
2022-12-12T14:26:51.855Z,99742.34
2022-12-12T14:32:08.459Z,99748.81
2022-12-12T14:37:39.027Z,99745.72
2022-12-12T14:43:19.208Z,99755.75
2022-12-12T14:48:19.063Z,99755.09
2022-12-12T14:53:24.919Z,99763.41
2022-12-12T14:58:31.437Z,99761.34
2022-12-12T15:03:39.246Z,99757.47
2022-12-12T15:08:42.857Z,99765.84
2022-12-12T15:13:57.739Z,99774.81
2022-12-12T15:19:02.287Z,99777.78
2022-12-12T15:24:06.003Z,99773.63
2022-12-12T15:29:17.583Z,99773.09
2022-12-12T15:34:35.973Z,99777.88
2022-12-12T15:39:39.158Z,99783.50
2022-12-12T15:44:45.317Z,99789.94
2022-12-12T15:49:50.336Z,99795.63
2022-12-12T15:54:55.574Z,99790.50
2022-12-12T16:00:03.343Z,99806.94
2022-12-12T16:05:20.349Z,99817.22
2022-12-12T16:10:25.004Z,99805.97
2022-12-12T16:15:37.185Z,99801.69
2022-12-12T16:20:45.822Z,99789.56
2022-12-12T16:25:48.611Z,99797.28
2022-12-12T16:30:56.036Z,99795.34
2022-12-12T16:36:00.420Z,99798.91
2022-12-12T16:41:06.599Z,99809.69
2022-12-12T16:46:18.858Z,99811.63
2022-12-12T16:51:27.973Z,99801.09
2022-12-12T16:56:30.918Z,99809.91
2022-12-12T17:01:38.797Z,99812.97
2022-12-12T17:06:42.024Z,99815.31
2022-12-12T17:11:44.868Z,99817.88
2022-12-12T17:16:49.529Z,99816.31
2022-12-12T17:21:52.518Z,99821.34
2022-12-12T17:26:55.273Z,99810.91
2022-12-12T17:31:59.437Z,99811.03
2022-12-12T17:37:02.541Z,99824.50
2022-12-12T17:42:05.472Z,99813.75
2022-12-12T17:47:09.655Z,99812.97
2022-12-12T17:52:12.484Z,99811.03
2022-12-12T17:57:15.391Z,99820.06
2022-12-12T18:02:19.550Z,99817.53
2022-12-12T18:07:22.481Z,99812.63
2022-12-12T18:12:25.286Z,99814.59
2022-12-12T18:17:29.380Z,99818.63
2022-12-12T18:22:32.295Z,99818.84
2022-12-12T18:27:35.147Z,99821.69
2022-12-12T18:32:39.376Z,99831.81
2022-12-12T18:37:42.156Z,99848.97
2022-12-12T18:42:46.949Z,99844.44
2022-12-12T18:47:51.363Z,99842.72
2022-12-12T18:52:54.119Z,99853.72
2022-12-12T18:57:57.054Z,99850.94
2022-12-12T19:03:01.383Z,99845.53
2022-12-12T19:08:04.248Z,99847.00
2022-12-12T19:13:07.079Z,99843.34
2022-12-12T19:18:11.472Z,99840.88
2022-12-12T19:23:14.617Z,99847.00
2022-12-12T19:28:17.418Z,99847.75
2022-12-12T19:33:21.659Z,99853.38
2022-12-12T19:38:24.898Z,99865.97
2022-12-12T19:43:30.269Z,99871.25
2022-12-12T19:48:35.132Z,99874.19
2022-12-12T19:53:39.803Z,99880.31
2022-12-12T19:58:43.162Z,99867.81
2022-12-12T20:03:52.175Z,99862.56
2022-12-12T20:08:58.471Z,99856.06
2022-12-12T20:14:01.571Z,99851.66
2022-12-12T20:19:06.046Z,99847.13
2022-12-12T20:24:08.912Z,99846.16
2022-12-12T20:29:13.157Z,99860.38
2022-12-12T20:34:18.888Z,99862.22
2022-12-12T20:39:22.510Z,99859.53
2022-12-12T20:44:25.702Z,99857.19
2022-12-12T20:49:30.388Z,99867.34
2022-12-12T20:54:33.259Z,99858.03
2022-12-12T20:59:36.054Z,99860.25
2022-12-12T21:04:40.296Z,99858.88
2022-12-12T21:09:43.046Z,99855.22
2022-12-12T21:14:46.694Z,99856.81
2022-12-12T21:19:51.015Z,99864.50
2022-12-12T21:24:53.909Z,99863.53
2022-12-12T21:29:56.719Z,99862.22
2022-12-12T21:35:01.017Z,99859.53
2022-12-12T21:40:04.135Z,99865.13
2022-12-12T21:45:08.918Z,99858.88
2022-12-12T21:50:13.100Z,99862.44
2022-12-12T21:55:16.472Z,99870.66
2022-12-12T22:00:19.462Z,99862.69
2022-12-12T22:05:23.577Z,99868.94
2022-12-12T22:10:26.329Z,99866.13
2022-12-12T22:15:29.105Z,99867.19
2022-12-12T22:20:35.658Z,99866.47
2022-12-12T22:25:38.472Z,99856.66
2022-12-12T22:30:41.996Z,99859.59
2022-12-12T22:35:46.241Z,99848.22
2022-12-12T22:40:54.651Z,99844.75
2022-12-12T22:45:57.889Z,99847.06
2022-12-12T22:51:12.817Z,99846.72
2022-12-12T22:56:16.644Z,99846.72
2022-12-12T23:01:23.358Z,99836.28
2022-12-12T23:06:30.389Z,99832.53
2022-12-12T23:11:34.482Z,99833.38
2022-12-12T23:16:37.562Z,99832.88
2022-12-12T23:21:42.251Z,99833.38
2022-12-12T23:26:45.430Z,99825.19
2022-12-12T23:31:48.275Z,99835.44
2022-12-12T23:36:53.735Z,99818.56
2022-12-12T23:41:56.728Z,99820.00
2022-12-12T23:46:59.485Z,99821.50
2022-12-12T23:52:03.736Z,99818.31
2022-12-12T23:57:06.507Z,99820.00
